Elmwood, Illinois
Current Conditions -  °F | °C
As of 10:54 AM on Tuesday 27 Jan 2015 (Local Time) from KPIA Reporting Station
Haze Haze  
Wind Chill: 23°   Ceiling: 1200
Heat Index: 31°   Visibility: 6mi
Dew Point: 25°   Wind: 9mph
Humidity: 79%   Direction: 50°NE
Pressure: 30.18"   Gusts: NA
Location:  40.78°N, 89.97°W
Report Text: KPIA 271654Z 05008KT 6SM HZ OVC012 M01/M04 A3018 RMK AO2 SLP227 T10061039
Loading
Personal Weather Stations






























Interactive Weather Map New forecast layout! Learn more

10-Day Weather Forecast

Advertisements
Track Severe Weather on mobile